SBOSBO KRK / EPKK
Speedbird OnlineSpeedbird Online KRK / EPKK

Kraków John Paul II International Airport
10:22 14.7°C

Location Krakow, Poland
Latitude: 50.077702
Longitude: 19.7848
Web Airport Website | Wikipedia
Altitude 241 Meter / 791 Feet
Distance 1,387 KM / 862 Miles
from London.
Time Zone UTC +2 hours (Europe/Warsaw)
Codes IATA: KRK
ICAO: EPKK
Currency £1 equals PLN 5.52
Runways
RunwayLength (m)Surface
072550Concrete
252550Concrete
Radio
TypeDescriptionFrequency
APPKRAKOW APP121.075
ATISATIS126.125
DIRKRAKOW DIRECTOR123.8
TWRKRAKOW DELIVERY118.1
TWRKRAKOW TWR123.25
Live ATC
METAR EPKK 060800Z VRB02KT CAVOK 14/10 Q1026
TAF TAF EPKK 060530Z 0606/0706 VRB02KT CAVOK PROB40 0606/0608 4000 BR BECMG 0609/0612 25010KT PROB40 TEMPO 0609/0614 27015G25KT BKN040TCU BECMG 0620/0622 VRB02KT TEMPO 0621/0706 2000 BR PROB40 TEMPO 0621/0706 0300 FG BKN002
Weather As Of 06 Oct 2022 10:22
Description Clear sky
Wind 4 km/h from North (0°)
Cloud Cover 0%
Precipitation Rain: none, Snow: none
Sunrise 06:48
Sunset 18:09
Lounges Business Lounge Non Schengen (Temporarily Closed), Main Terminal
Business Lounge Schengen, Terminal 1
Rotations During the last 90 days there were
36 flights from LHR
1 flights from KRK
34 flights to LHR
1 flights to KRK


© 2017-2022 Speedbird Online